Πλησιέστερες Αναφορές METAR

 

LGTS - Thessaloniki/Makedonia-Elev 7m
Distance from station: Ν 13km
Ενημερώθηκε: 25/06/2022 06:50
Αίθριος
Αίθριος
 Ανεμος από varies
Ανεμος: varies 6 km/h
Θερμοκρασία: 21°C
Σημείο Δρόσου: 18°C
Υγρασία: 83%
Βαρόμετρο: 1013 hPa
Συνθήκες: Αίθριος
Visibility: greater than 10 km
2022/06/25 03:50 LGTS 250350Z VRB03KT CAVOK 21/18 Q1013 NOSIG
LGAV - Athens/Elef. Venizelos-Elev 94m
Distance from station: ΝΝΑ 312km
Ενημερώθηκε: 25/06/2022 06:50
Few Clouds
Few Clouds
 Ανεμος από varies
Ανεμος: varies 4 km/h
Θερμοκρασία: 21°C
Σημείο Δρόσου: 10°C
Υγρασία: 50%
Βαρόμετρο: 1014 hPa
Clouds: Few Clouds
Visibility: 10 km
Cloud details: Few Clouds 914 m
2022/06/25 03:50 LGAV 250350Z VRB02KT 9999 FEW030 21/10 Q1014 NOSIG
 
LGAL - Alexandroupolis-Elev 3m
Distance from station: Α 251km
Ενημερώθηκε: 25/06/2022 06:50
Αίθριος
Αίθριος
 Ανεμος από calm
Ανεμος: Απνοια
Θερμοκρασία: 16°C
Σημείο Δρόσου: 14°C
Υγρασία: 88%
Βαρόμετρο: 1012 hPa
Συνθήκες: Αίθριος
Visibility: greater than 10 km
2022/06/25 03:50 LGAL 250350Z 00000KT CAVOK 16/14 Q1012
LGKV - Kavala/Crysoupolis-Elev 5m
Distance from station: ΑΒΑ 144km
Ενημερώθηκε: 25/06/2022 06:50
Few Clouds
Few Clouds
 Ανεμος από calm
Ανεμος: Απνοια
Θερμοκρασία: 19°C
Σημείο Δρόσου: 16°C
Υγρασία: 83%
Βαρόμετρο: 1012 hPa
Clouds: Few Clouds
Visibility: 10 km
Cloud details: Few Clouds 610 m
2022/06/25 03:50 LGKV 250350Z 00000KT 9999 FEW020 19/16 Q1012
 
LGSK - Skiathos Island-Elev 15m
Distance from station: ΝΝΑ 168km
Ενημερώθηκε: 24/06/2022 20:50
Μη Ενημερωμένο!
Αίθριος
Αίθριος
 Ανεμος από varies
Ανεμος: varies 6 km/h
Θερμοκρασία: 23°C
Σημείο Δρόσου: 18°C
Υγρασία: 74%
Βαρόμετρο: 1013 hPa
Συνθήκες: Αίθριος
Visibility: greater than 10 km
2022/06/24 17:50 LGSK 241750Z VRB03KT CAVOK 23/18 Q1013
LGLM - Limnos Island-Elev 5m
Distance from station: ΑΝΑ 210km
Ενημερώθηκε: 25/06/2022 06:50
Αίθριος
Αίθριος
 Ανεμος από calm
Ανεμος: Απνοια
Θερμοκρασία: 18°C
Σημείο Δρόσου: 14°C
Υγρασία: 78%
Βαρόμετρο: 1013 hPa
Συνθήκες: Αίθριος
Visibility: greater than 10 km
2022/06/25 03:50 LGLM 250350Z 00000KT CAVOK 18/14 Q1013
 
LGMT - Mitilini Island-Elev 17m
Distance from station: ΑΝΑ 358km
Ενημερώθηκε: 25/06/2022 06:50
Αίθριος
Αίθριος
 Ανεμος από varies
Ανεμος: varies 6 km/h
Θερμοκρασία: 23°C
Σημείο Δρόσου: 17°C
Υγρασία: 69%
Βαρόμετρο: 1012 hPa
Συνθήκες: Αίθριος
Visibility: greater than 10 km
2022/06/25 03:50 LGMT 250350Z VRB03KT CAVOK 23/17 Q1012
LGSY - Skiros Island-Elev 15m
Distance from station: ΝΑ 227km
Ενημερώθηκε: 25/06/2022 06:50
Αίθριος
Αίθριος
 Ανεμος από varies
Ανεμος: varies 4 km/h
Θερμοκρασία: 22°C
Σημείο Δρόσου: 10°C
Υγρασία: 47%
Βαρόμετρο: 1013 hPa
Συνθήκες: Αίθριος
Visibility: greater than 10 km
2022/06/25 03:50 LGSY 250350Z VRB02KT CAVOK 22/10 Q1013 RMK FEW200 BLU
 
LGKZ - Kozani-Elev 628m
Distance from station: ΔΝΔ 102km
Ενημερώθηκε: 25/06/2022 06:50

 Ανεμος από varies
Ανεμος: varies 6 km/h
Θερμοκρασία: 18°C
Σημείο Δρόσου: 15°C
Υγρασία: 83%
Βαρόμετρο: 1016 hPa
2022/06/25 03:50 LGKZ 250350Z AUTO VRB03KT //// // ////// 18/15 Q1016 RE//
LGIO - Ioannina-Elev 476m
Distance from station: ΔΝΔ 209km
Ενημερώθηκε: 25/06/2022 06:50

 Ανεμος από varies
Ανεμος: varies 2 km/h
Θερμοκρασία: 16°C
Σημείο Δρόσου: 14°C
Υγρασία: 88%
Βαρόμετρο: 1016 hPa
2022/06/25 03:50 LGIO 250350Z AUTO VRB01KT //// // ////// 16/14 Q1016 RE//
 
LGZA - Zakinthos-Elev 3m
Distance from station: ΝΝΔ 367km
Ενημερώθηκε: 25/06/2022 06:50
Μερικώς νεφελώδης
Μερικώς νεφελώδης
 Ανεμος από ΝΑ
Ανεμος: ΝΑ 13 km/h
Θερμοκρασία: 25°C
Σημείο Δρόσου: 24°C
Υγρασία: 94%
Βαρόμετρο: 1013 hPa
Clouds: Μερικώς νεφελώδης
Visibility: 10 km
Cloud details: Μερικώς νεφελώδης 488 m
2022/06/25 03:50 LGZA 250350Z 14007KT 9999 SCT016 25/24 Q1013
LGKR - Corfu Island-Elev 2m
Distance from station: ΔΝΔ 282km
Ενημερώθηκε: 25/06/2022 06:50
Αίθριος
Αίθριος
 Ανεμος από calm
Ανεμος: Απνοια
Θερμοκρασία: 23°C
Σημείο Δρόσου: 17°C
Υγρασία: 69%
Βαρόμετρο: 1011 hPa
Συνθήκες: Αίθριος
Visibility: greater than 10 km
2022/06/25 03:50 LGKR 250350Z 00000KT CAVOK 23/17 Q1011 NOSIG
 
LGSO - Syros Island-Elev 72m
Distance from station: ΝΝΑ 397km
Ενημερώθηκε: 25/06/2022 06:50

 Ανεμος από Β
Ανεμος: Β 7 km/h
Θερμοκρασία: 24°C
Σημείο Δρόσου: 12°C
Υγρασία: 47%
Βαρόμετρο: 1014 hPa
2022/06/25 03:50 LGSO 250350Z AUTO 35004KT 330V030 //// // ////// 24/12 Q1014 RE//
LGMK - Mikonos Island-Elev 123m
Distance from station: ΝΝΑ 412km
Ενημερώθηκε: 25/06/2022 06:50
Αίθριος
Αίθριος
 Ανεμος από varies
Ανεμος: varies 0 km/h
Θερμοκρασία: 22°C
Σημείο Δρόσου: 14°C
Υγρασία: 61%
Βαρόμετρο: 1013 hPa
Συνθήκες: Αίθριος
Visibility: greater than 10 km
2022/06/25 03:50 LGMK 250350Z /////KT CAVOK 22/14 Q1013
 
LGSR - Santorini Island-Elev 40m
Distance from station: ΝΝΑ 520km
Ενημερώθηκε: 25/06/2022 06:50
Αίθριος
Αίθριος
 Ανεμος από calm
Ανεμος: Απνοια
Θερμοκρασία: 23°C
Σημείο Δρόσου: 17°C
Υγρασία: 69%
Βαρόμετρο: 1013 hPa
Συνθήκες: Αίθριος
Visibility: greater than 10 km
2022/06/25 03:50 LGSR 250350Z 00000KT CAVOK 23/17 Q1013
LGKL - Kalamata-Elev 8m
Distance from station: Ν 405km
Ενημερώθηκε: 25/06/2022 06:50
Αίθριος
Αίθριος
 Ανεμος από varies
Ανεμος: varies 6 km/h
Θερμοκρασία: 20°C
Σημείο Δρόσου: 19°C
Υγρασία: 94%
Βαρόμετρο: 1014 hPa
Συνθήκες: Αίθριος
Visibility: greater than 10 km
2022/06/25 03:50 LGKL 250350Z VRB03KT CAVOK 20/19 Q1014
 
LGIR - Iraklion/Crete-Elev 5m
Distance from station: ΝΝΑ 622km
Ενημερώθηκε: 25/06/2022 06:50
Αίθριος
Αίθριος
 Ανεμος από ΒΔ
Ανεμος: ΒΔ 17 km/h
Θερμοκρασία: 24°C
Σημείο Δρόσου: 18°C
Υγρασία: 69%
Βαρόμετρο: 1014 hPa
Συνθήκες: Αίθριος
Visibility: greater than 10 km
2022/06/25 03:50 LGIR 250350Z 31009KT CAVOK 24/18 Q1014 NOSIG
LGRP - Rhodes-Elev 5m
Distance from station: ΝΑ 649km
Ενημερώθηκε: 25/06/2022 06:50
Αίθριος
Αίθριος
 Ανεμος από varies
Ανεμος: varies 4 km/h
Θερμοκρασία: 24°C
Σημείο Δρόσου: 17°C
Υγρασία: 65%
Βαρόμετρο: 1009 hPa
Συνθήκες: Αίθριος
Visibility: greater than 10 km
2022/06/25 03:50 LGRP 250350Z VRB02KT CAVOK 24/17 Q1009 NOSIG
 
LWOH - Ohrid/FYROM-Elev 761m
Distance from station: ΔΒΔ 188km
Ενημερώθηκε: 25/06/2022 07:00
Αίθριος
Αίθριος
 Ανεμος από ΒΒΔ
Ανεμος: ΒΒΔ 6 km/h
Θερμοκρασία: 15°C
Σημείο Δρόσου: 13°C
Υγρασία: 88%
Βαρόμετρο: 1016 hPa
Συνθήκες: Αίθριος
Visibility: greater than 10 km
2022/06/25 04:00 LWOH 250400Z 34003KT CAVOK 15/13 Q1016
LBSF - Sofia/Bulgaria-Elev 595m
Distance from station: Β 227km
Ενημερώθηκε: 25/06/2022 07:00
Μερικώς νεφελώδης
Μερικώς νεφελώδης
 Ανεμος από varies
Ανεμος: varies 4 km/h
Θερμοκρασία: 16°C
Σημείο Δρόσου: 14°C
Υγρασία: 88%
Βαρόμετρο: 1015 hPa
Clouds: Μερικώς νεφελώδης
Visibility: 10 km
Cloud details: Μερικώς νεφελώδης 2591 m
2022/06/25 04:00 LBSF 250400Z VRB02KT 9999 SCT085 16/14 Q1015 TEMPO SHRA SCT040TCU
Σημερινά ρεκόρ Μετεωρολογικού Σταθμού
Δεν έχει σημειωθεί νέο ρεκόρ μέχρι τις 07:18 σήμερα - 25/6/2022